sensor_id;sensor_type;location;lat;lon;timestamp;temperature;humidity
44121;DHT22;29783;52.504;13.478;2022-07-04T00:02:18;21.70;62.70
44121;DHT22;29783;52.504;13.478;2022-07-04T00:04:44;21.70;63.30
44121;DHT22;29783;52.504;13.478;2022-07-04T00:07:10;21.70;62.90
44121;DHT22;29783;52.504;13.478;2022-07-04T00:09:35;21.60;63.00
44121;DHT22;29783;52.504;13.478;2022-07-04T00:12:01;21.70;63.10
44121;DHT22;29783;52.504;13.478;2022-07-04T00:14:26;21.50;63.20
44121;DHT22;29783;52.504;13.478;2022-07-04T00:16:52;21.50;63.60
44121;DHT22;29783;52.504;13.478;2022-07-04T00:19:17;21.40;63.80
44121;DHT22;29783;52.504;13.478;2022-07-04T00:21:43;21.40;63.70
44121;DHT22;29783;52.504;13.478;2022-07-04T00:24:09;21.30;63.90
44121;DHT22;29783;52.504;13.478;2022-07-04T00:26:34;21.20;64.50
44121;DHT22;29783;52.504;13.478;2022-07-04T00:29:00;21.20;65.00
44121;DHT22;29783;52.504;13.478;2022-07-04T00:31:25;21.10;65.40
44121;DHT22;29783;52.504;13.478;2022-07-04T00:33:51;20.90;65.70
44121;DHT22;29783;52.504;13.478;2022-07-04T00:36:17;20.90;66.00
44121;DHT22;29783;52.504;13.478;2022-07-04T00:38:42;20.80;66.30
44121;DHT22;29783;52.504;13.478;2022-07-04T00:41:08;20.70;66.40
44121;DHT22;29783;52.504;13.478;2022-07-04T00:43:33;20.70;66.90
44121;DHT22;29783;52.504;13.478;2022-07-04T00:46:03;20.70;67.10
44121;DHT22;29783;52.504;13.478;2022-07-04T00:48:29;20.60;67.30
44121;DHT22;29783;52.504;13.478;2022-07-04T00:50:55;20.60;67.60
44121;DHT22;29783;52.504;13.478;2022-07-04T00:53:22;20.50;67.90
44121;DHT22;29783;52.504;13.478;2022-07-04T00:55:51;20.40;68.10
44121;DHT22;29783;52.504;13.478;2022-07-04T00:58:22;20.30;68.40
44121;DHT22;29783;52.504;13.478;2022-07-04T01:00:48;20.30;68.60
44121;DHT22;29783;52.504;13.478;2022-07-04T01:03:15;20.30;68.70
44121;DHT22;29783;52.504;13.478;2022-07-04T01:05:42;20.20;68.80
44121;DHT22;29783;52.504;13.478;2022-07-04T01:08:07;20.10;69.40
44121;DHT22;29783;52.504;13.478;2022-07-04T01:10:34;20.10;69.70
44121;DHT22;29783;52.504;13.478;2022-07-04T01:12:59;20.10;69.60
44121;DHT22;29783;52.504;13.478;2022-07-04T01:15:25;20.00;70.00
44121;DHT22;29783;52.504;13.478;2022-07-04T01:17:50;20.00;70.00
44121;DHT22;29783;52.504;13.478;2022-07-04T01:20:16;20.00;70.10
44121;DHT22;29783;52.504;13.478;2022-07-04T01:22:43;20.00;70.40
44121;DHT22;29783;52.504;13.478;2022-07-04T01:25:09;19.90;70.70
44121;DHT22;29783;52.504;13.478;2022-07-04T01:27:35;19.90;70.80
44121;DHT22;29783;52.504;13.478;2022-07-04T01:30:00;19.90;71.20
44121;DHT22;29783;52.504;13.478;2022-07-04T01:32:26;19.80;71.40
44121;DHT22;29783;52.504;13.478;2022-07-04T01:34:52;19.70;71.80
44121;DHT22;29783;52.504;13.478;2022-07-04T01:37:18;19.60;72.30
44121;DHT22;29783;52.504;13.478;2022-07-04T01:39:43;19.60;72.60
44121;DHT22;29783;52.504;13.478;2022-07-04T01:42:09;19.60;72.70
44121;DHT22;29783;52.504;13.478;2022-07-04T01:44:35;19.50;72.90
44121;DHT22;29783;52.504;13.478;2022-07-04T01:47:01;19.40;73.30
44121;DHT22;29783;52.504;13.478;2022-07-04T01:49:27;19.40;73.70
44121;DHT22;29783;52.504;13.478;2022-07-04T01:51:52;19.30;73.90
44121;DHT22;29783;52.504;13.478;2022-07-04T01:54:19;19.30;74.30
44121;DHT22;29783;52.504;13.478;2022-07-04T01:56:45;19.20;74.40
44121;DHT22;29783;52.504;13.478;2022-07-04T01:59:11;19.20;74.70
44121;DHT22;29783;52.504;13.478;2022-07-04T02:01:36;19.20;74.80
44121;DHT22;29783;52.504;13.478;2022-07-04T02:04:05;19.20;75.20
44121;DHT22;29783;52.504;13.478;2022-07-04T02:06:31;19.20;75.60
44121;DHT22;29783;52.504;13.478;2022-07-04T02:08:57;19.10;76.00
44121;DHT22;29783;52.504;13.478;2022-07-04T02:11:42;19.00;76.40
44121;DHT22;29783;52.504;13.478;2022-07-04T02:14:26;19.00;76.60
44121;DHT22;29783;52.504;13.478;2022-07-04T02:16:52;18.90;76.90
44121;DHT22;29783;52.504;13.478;2022-07-04T02:19:18;18.90;77.60
44121;DHT22;29783;52.504;13.478;2022-07-04T02:21:44;18.80;78.20
44121;DHT22;29783;52.504;13.478;2022-07-04T02:24:09;18.70;79.00
44121;DHT22;29783;52.504;13.478;2022-07-04T02:26:35;18.70;79.50
44121;DHT22;29783;52.504;13.478;2022-07-04T02:29:01;18.70;80.00
44121;DHT22;29783;52.504;13.478;2022-07-04T02:31:26;18.60;80.30
44121;DHT22;29783;52.504;13.478;2022-07-04T02:33:52;18.60;81.00
44121;DHT22;29783;52.504;13.478;2022-07-04T02:36:18;18.50;81.40
44121;DHT22;29783;52.504;13.478;2022-07-04T02:38:44;18.40;81.80
44121;DHT22;29783;52.504;13.478;2022-07-04T02:41:09;18.40;82.90
44121;DHT22;29783;52.504;13.478;2022-07-04T02:43:35;18.30;83.30
44121;DHT22;29783;52.504;13.478;2022-07-04T02:46:00;18.30;83.80
44121;DHT22;29783;52.504;13.478;2022-07-04T02:48:27;18.20;84.40
44121;DHT22;29783;52.504;13.478;2022-07-04T02:50:52;18.20;84.70
44121;DHT22;29783;52.504;13.478;2022-07-04T02:53:18;18.20;85.10
44121;DHT22;29783;52.504;13.478;2022-07-04T02:55:43;18.10;85.60
44121;DHT22;29783;52.504;13.478;2022-07-04T02:58:09;18.10;85.90
44121;DHT22;29783;52.504;13.478;2022-07-04T03:00:35;18.00;86.20
44121;DHT22;29783;52.504;13.478;2022-07-04T03:03:00;17.90;86.30
44121;DHT22;29783;52.504;13.478;2022-07-04T03:05:26;17.90;86.40
44121;DHT22;29783;52.504;13.478;2022-07-04T03:07:54;17.90;86.50
44121;DHT22;29783;52.504;13.478;2022-07-04T03:10:19;17.90;86.70
44121;DHT22;29783;52.504;13.478;2022-07-04T03:12:46;17.80;86.80
44121;DHT22;29783;52.504;13.478;2022-07-04T03:15:12;17.80;86.80
44121;DHT22;29783;52.504;13.478;2022-07-04T03:17:37;17.70;87.10
44121;DHT22;29783;52.504;13.478;2022-07-04T03:20:03;17.70;87.10
44121;DHT22;29783;52.504;13.478;2022-07-04T03:22:29;17.70;87.10
44121;DHT22;29783;52.504;13.478;2022-07-04T03:24:54;17.70;87.10
44121;DHT22;29783;52.504;13.478;2022-07-04T03:27:20;17.70;87.30
44121;DHT22;29783;52.504;13.478;2022-07-04T03:29:45;17.70;87.20
44121;DHT22;29783;52.504;13.478;2022-07-04T03:32:11;17.70;87.40
44121;DHT22;29783;52.504;13.478;2022-07-04T03:34:36;17.70;87.40
44121;DHT22;29783;52.504;13.478;2022-07-04T03:37:02;17.70;87.50
44121;DHT22;29783;52.504;13.478;2022-07-04T03:39:28;17.70;87.50
44121;DHT22;29783;52.504;13.478;2022-07-04T03:41:53;17.70;87.60
44121;DHT22;29783;52.504;13.478;2022-07-04T03:44:19;17.70;87.50
44121;DHT22;29783;52.504;13.478;2022-07-04T03:46:44;17.70;87.50
44121;DHT22;29783;52.504;13.478;2022-07-04T03:49:10;17.80;87.40
44121;DHT22;29783;52.504;13.478;2022-07-04T03:51:35;17.80;87.30
44121;DHT22;29783;52.504;13.478;2022-07-04T03:54:01;17.80;87.20
44121;DHT22;29783;52.504;13.478;2022-07-04T03:56:27;17.80;87.40
44121;DHT22;29783;52.504;13.478;2022-07-04T03:58:52;17.80;87.30
44121;DHT22;29783;52.504;13.478;2022-07-04T04:01:18;17.80;87.40
44121;DHT22;29783;52.504;13.478;2022-07-04T04:03:45;17.80;87.50
44121;DHT22;29783;52.504;13.478;2022-07-04T04:06:30;17.70;87.50
44121;DHT22;29783;52.504;13.478;2022-07-04T04:08:56;17.70;87.70
44121;DHT22;29783;52.504;13.478;2022-07-04T04:11:21;17.70;87.70
44121;DHT22;29783;52.504;13.478;2022-07-04T04:13:47;17.80;87.40
44121;DHT22;29783;52.504;13.478;2022-07-04T04:16:13;17.90;87.20
44121;DHT22;29783;52.504;13.478;2022-07-04T04:18:38;18.10;86.70
44121;DHT22;29783;52.504;13.478;2022-07-04T04:21:04;18.20;86.10
44121;DHT22;29783;52.504;13.478;2022-07-04T04:23:30;18.20;85.80
44121;DHT22;29783;52.504;13.478;2022-07-04T04:25:56;18.20;85.80
44121;DHT22;29783;52.504;13.478;2022-07-04T04:28:22;18.20;86.00
44121;DHT22;29783;52.504;13.478;2022-07-04T04:30:48;18.20;85.60
44121;DHT22;29783;52.504;13.478;2022-07-04T04:33:13;18.20;85.80
44121;DHT22;29783;52.504;13.478;2022-07-04T04:35:39;18.20;85.70
44121;DHT22;29783;52.504;13.478;2022-07-04T04:38:04;18.20;85.80
44121;DHT22;29783;52.504;13.478;2022-07-04T04:40:30;18.20;85.60
44121;DHT22;29783;52.504;13.478;2022-07-04T04:42:56;18.20;85.70
44121;DHT22;29783;52.504;13.478;2022-07-04T04:45:21;18.30;85.50
44121;DHT22;29783;52.504;13.478;2022-07-04T04:47:47;18.30;85.40
44121;DHT22;29783;52.504;13.478;2022-07-04T04:50:13;18.30;85.30
44121;DHT22;29783;52.504;13.478;2022-07-04T04:52:40;18.40;85.00
44121;DHT22;29783;52.504;13.478;2022-07-04T04:55:07;18.40;84.90
44121;DHT22;29783;52.504;13.478;2022-07-04T04:57:33;18.60;84.20
44121;DHT22;29783;52.504;13.478;2022-07-04T04:59:58;18.70;83.90
44121;DHT22;29783;52.504;13.478;2022-07-04T05:02:24;18.70;84.10
44121;DHT22;29783;52.504;13.478;2022-07-04T05:04:50;18.70;83.60
44121;DHT22;29783;52.504;13.478;2022-07-04T05:07:15;18.70;83.80
44121;DHT22;29783;52.504;13.478;2022-07-04T05:09:41;18.90;83.10
44121;DHT22;29783;52.504;13.478;2022-07-04T05:12:06;19.00;82.80
44121;DHT22;29783;52.504;13.478;2022-07-04T05:14:32;19.00;82.40
44121;DHT22;29783;52.504;13.478;2022-07-04T05:16:58;18.90;82.90
44121;DHT22;29783;52.504;13.478;2022-07-04T05:19:23;19.00;83.00
44121;DHT22;29783;52.504;13.478;2022-07-04T05:21:49;19.30;81.60
44121;DHT22;29783;52.504;13.478;2022-07-04T05:24:14;19.50;80.70
44121;DHT22;29783;52.504;13.478;2022-07-04T05:26:41;19.70;79.80
44121;DHT22;29783;52.504;13.478;2022-07-04T05:29:07;19.70;79.40
44121;DHT22;29783;52.504;13.478;2022-07-04T05:31:32;19.70;79.60
44121;DHT22;29783;52.504;13.478;2022-07-04T05:33:58;19.50;79.90
44121;DHT22;29783;52.504;13.478;2022-07-04T05:36:24;19.70;79.60
44121;DHT22;29783;52.504;13.478;2022-07-04T05:38:50;19.80;78.80
44121;DHT22;29783;52.504;13.478;2022-07-04T05:41:16;19.80;78.80
44121;DHT22;29783;52.504;13.478;2022-07-04T05:43:41;19.70;79.00
44121;DHT22;29783;52.504;13.478;2022-07-04T05:46:07;19.50;79.20
44121;DHT22;29783;52.504;13.478;2022-07-04T05:48:33;19.40;79.50
44121;DHT22;29783;52.504;13.478;2022-07-04T05:50:59;19.30;79.90
44121;DHT22;29783;52.504;13.478;2022-07-04T05:53:25;19.30;79.90
44121;DHT22;29783;52.504;13.478;2022-07-04T05:55:50;19.40;79.40
44121;DHT22;29783;52.504;13.478;2022-07-04T05:58:16;19.50;78.80
44121;DHT22;29783;52.504;13.478;2022-07-04T06:00:41;19.50;78.40
44121;DHT22;29783;52.504;13.478;2022-07-04T06:03:07;19.50;77.90
44121;DHT22;29783;52.504;13.478;2022-07-04T06:05:33;19.40;77.80
44121;DHT22;29783;52.504;13.478;2022-07-04T06:07:58;19.40;77.90
44121;DHT22;29783;52.504;13.478;2022-07-04T06:10:24;19.50;77.70
44121;DHT22;29783;52.504;13.478;2022-07-04T06:12:49;19.70;76.80
44121;DHT22;29783;52.504;13.478;2022-07-04T06:15:15;19.70;76.50
44121;DHT22;29783;52.504;13.478;2022-07-04T06:17:41;19.70;76.10
44121;DHT22;29783;52.504;13.478;2022-07-04T06:20:08;19.70;75.70
44121;DHT22;29783;52.504;13.478;2022-07-04T06:22:44;19.70;75.40
44121;DHT22;29783;52.504;13.478;2022-07-04T06:25:11;19.60;75.50
44121;DHT22;29783;52.504;13.478;2022-07-04T06:27:37;19.60;74.90
44121;DHT22;29783;52.504;13.478;2022-07-04T06:30:04;19.60;75.00
44121;DHT22;29783;52.504;13.478;2022-07-04T06:32:29;19.70;74.90
44121;DHT22;29783;52.504;13.478;2022-07-04T06:34:55;19.70;74.50
44121;DHT22;29783;52.504;13.478;2022-07-04T06:37:39;19.80;74.10
44121;DHT22;29783;52.504;13.478;2022-07-04T06:40:05;19.80;71.60
44121;DHT22;29783;52.504;13.478;2022-07-04T06:42:31;19.80;71.40
44121;DHT22;29783;52.504;13.478;2022-07-04T06:44:56;19.90;69.50
44121;DHT22;29783;52.504;13.478;2022-07-04T06:47:22;19.90;68.20
44121;DHT22;29783;52.504;13.478;2022-07-04T06:49:47;19.90;66.00
44121;DHT22;29783;52.504;13.478;2022-07-04T06:52:13;19.90;65.00
44121;DHT22;29783;52.504;13.478;2022-07-04T06:54:38;19.90;63.80
44121;DHT22;29783;52.504;13.478;2022-07-04T06:57:04;19.80;63.70
44121;DHT22;29783;52.504;13.478;2022-07-04T06:59:29;19.80;63.70
44121;DHT22;29783;52.504;13.478;2022-07-04T07:01:55;20.10;62.70
44121;DHT22;29783;52.504;13.478;2022-07-04T07:04:20;20.30;62.00
44121;DHT22;29783;52.504;13.478;2022-07-04T07:06:46;20.40;61.80
44121;DHT22;29783;52.504;13.478;2022-07-04T07:09:11;20.40;62.10
44121;DHT22;29783;52.504;13.478;2022-07-04T07:11:37;20.60;62.20
44121;DHT22;29783;52.504;13.478;2022-07-04T07:14:03;20.60;61.80
44121;DHT22;29783;52.504;13.478;2022-07-04T07:16:28;20.70;60.60
44121;DHT22;29783;52.504;13.478;2022-07-04T07:18:54;20.80;60.80
44121;DHT22;29783;52.504;13.478;2022-07-04T07:21:19;20.90;60.60
44121;DHT22;29783;52.504;13.478;2022-07-04T07:23:45;20.70;60.00
44121;DHT22;29783;52.504;13.478;2022-07-04T07:26:12;20.70;59.00
44121;DHT22;29783;52.504;13.478;2022-07-04T07:28:38;20.70;59.80
44121;DHT22;29783;52.504;13.478;2022-07-04T07:31:03;21.00;59.80
44121;DHT22;29783;52.504;13.478;2022-07-04T07:33:29;21.10;59.50
44121;DHT22;29783;52.504;13.478;2022-07-04T07:35:55;21.30;58.40
44121;DHT22;29783;52.504;13.478;2022-07-04T07:38:20;21.40;59.10
44121;DHT22;29783;52.504;13.478;2022-07-04T07:40:46;21.40;59.50
44121;DHT22;29783;52.504;13.478;2022-07-04T07:43:12;21.50;58.70
44121;DHT22;29783;52.504;13.478;2022-07-04T07:45:37;21.80;58.30
44121;DHT22;29783;52.504;13.478;2022-07-04T07:48:03;22.20;54.50
44121;DHT22;29783;52.504;13.478;2022-07-04T07:50:29;22.20;53.20
44121;DHT22;29783;52.504;13.478;2022-07-04T07:52:54;22.20;54.40
44121;DHT22;29783;52.504;13.478;2022-07-04T07:55:20;22.20;54.20
44121;DHT22;29783;52.504;13.478;2022-07-04T07:57:46;22.10;54.80
44121;DHT22;29783;52.504;13.478;2022-07-04T08:00:11;22.20;54.60
44121;DHT22;29783;52.504;13.478;2022-07-04T08:02:37;22.00;55.30
44121;DHT22;29783;52.504;13.478;2022-07-04T08:05:21;21.90;54.90
44121;DHT22;29783;52.504;13.478;2022-07-04T08:07:47;22.20;54.40
44121;DHT22;29783;52.504;13.478;2022-07-04T08:10:12;22.00;54.90
44121;DHT22;29783;52.504;13.478;2022-07-04T08:12:38;22.00;55.20
44121;DHT22;29783;52.504;13.478;2022-07-04T08:15:04;22.00;55.80
44121;DHT22;29783;52.504;13.478;2022-07-04T08:17:30;22.10;55.80
44121;DHT22;29783;52.504;13.478;2022-07-04T08:19:56;22.20;55.40
44121;DHT22;29783;52.504;13.478;2022-07-04T08:22:21;22.30;52.50
44121;DHT22;29783;52.504;13.478;2022-07-04T08:24:47;22.10;52.90
44121;DHT22;29783;52.504;13.478;2022-07-04T08:27:13;22.00;53.20
44121;DHT22;29783;52.504;13.478;2022-07-04T08:29:38;21.70;53.50
44121;DHT22;29783;52.504;13.478;2022-07-04T08:32:04;21.70;54.50
44121;DHT22;29783;52.504;13.478;2022-07-04T08:34:33;21.70;54.60
44121;DHT22;29783;52.504;13.478;2022-07-04T08:36:58;21.70;54.10
44121;DHT22;29783;52.504;13.478;2022-07-04T08:39:24;21.80;53.30
44121;DHT22;29783;52.504;13.478;2022-07-04T08:41:52;21.60;54.90
44121;DHT22;29783;52.504;13.478;2022-07-04T08:44:21;21.50;54.40
44121;DHT22;29783;52.504;13.478;2022-07-04T08:46:50;21.40;54.90
44121;DHT22;29783;52.504;13.478;2022-07-04T08:49:21;21.60;54.00
44121;DHT22;29783;52.504;13.478;2022-07-04T08:51:54;21.70;53.90
44121;DHT22;29783;52.504;13.478;2022-07-04T08:54:25;21.60;54.70
44121;DHT22;29783;52.504;13.478;2022-07-04T08:57:10;21.70;54.30
44121;DHT22;29783;52.504;13.478;2022-07-04T08:59:54;22.00;53.70
44121;DHT22;29783;52.504;13.478;2022-07-04T09:02:22;22.20;53.50
44121;DHT22;29783;52.504;13.478;2022-07-04T09:04:49;22.20;53.60
44121;DHT22;29783;52.504;13.478;2022-07-04T09:07:15;22.20;51.00
44121;DHT22;29783;52.504;13.478;2022-07-04T09:09:41;22.20;51.70
44121;DHT22;29783;52.504;13.478;2022-07-04T09:12:08;22.10;52.40
44121;DHT22;29783;52.504;13.478;2022-07-04T09:14:34;22.00;53.30
44121;DHT22;29783;52.504;13.478;2022-07-04T09:17:00;22.30;53.20
44121;DHT22;29783;52.504;13.478;2022-07-04T09:19:26;22.10;54.10
44121;DHT22;29783;52.504;13.478;2022-07-04T09:21:51;22.20;54.40
44121;DHT22;29783;52.504;13.478;2022-07-04T09:27:31;22.60;53.50
44121;DHT22;29783;52.504;13.478;2022-07-04T09:29:57;22.80;53.20
44121;DHT22;29783;52.504;13.478;2022-07-04T09:35:02;22.30;53.00
44121;DHT22;29783;52.504;13.478;2022-07-04T09:37:39;22.20;53.40
44121;DHT22;29783;52.504;13.478;2022-07-04T09:40:10;22.80;51.50
44121;DHT22;29783;52.504;13.478;2022-07-04T09:42:38;23.00;47.50
44121;DHT22;29783;52.504;13.478;2022-07-04T09:45:08;23.00;49.70
44121;DHT22;29783;52.504;13.478;2022-07-04T09:47:35;23.10;49.90
44121;DHT22;29783;52.504;13.478;2022-07-04T09:50:04;23.00;50.60
44121;DHT22;29783;52.504;13.478;2022-07-04T09:52:30;23.00;49.90
44121;DHT22;29783;52.504;13.478;2022-07-04T09:55:00;22.90;48.90
44121;DHT22;29783;52.504;13.478;2022-07-04T09:57:29;23.20;48.40
44121;DHT22;29783;52.504;13.478;2022-07-04T09:59:56;23.20;48.50
44121;DHT22;29783;52.504;13.478;2022-07-04T10:02:21;23.30;47.40
44121;DHT22;29783;52.504;13.478;2022-07-04T10:04:48;23.50;44.90
44121;DHT22;29783;52.504;13.478;2022-07-04T10:07:34;23.50;45.60
44121;DHT22;29783;52.504;13.478;2022-07-04T10:10:23;23.70;46.80
44121;DHT22;29783;52.504;13.478;2022-07-04T10:12:51;23.90;46.70
44121;DHT22;29783;52.504;13.478;2022-07-04T10:15:18;24.60;45.60
44121;DHT22;29783;52.504;13.478;2022-07-04T10:17:43;24.30;46.20
44121;DHT22;29783;52.504;13.478;2022-07-04T10:20:11;24.70;45.60
44121;DHT22;29783;52.504;13.478;2022-07-04T10:22:37;24.80;44.80
44121;DHT22;29783;52.504;13.478;2022-07-04T10:25:04;24.80;45.00
44121;DHT22;29783;52.504;13.478;2022-07-04T10:27:30;24.90;44.40
44121;DHT22;29783;52.504;13.478;2022-07-04T10:30:00;24.70;44.60
44121;DHT22;29783;52.504;13.478;2022-07-04T10:32:27;24.60;44.60
44121;DHT22;29783;52.504;13.478;2022-07-04T10:34:53;24.30;44.50
44121;DHT22;29783;52.504;13.478;2022-07-04T10:37:18;24.40;44.10
44121;DHT22;29783;52.504;13.478;2022-07-04T10:39:44;24.40;43.40
44121;DHT22;29783;52.504;13.478;2022-07-04T10:42:25;24.10;43.90
44121;DHT22;29783;52.504;13.478;2022-07-04T10:44:51;24.10;44.70
44121;DHT22;29783;52.504;13.478;2022-07-04T10:47:24;24.80;43.80
44121;DHT22;29783;52.504;13.478;2022-07-04T10:49:51;25.40;42.20
44121;DHT22;29783;52.504;13.478;2022-07-04T10:52:17;25.10;42.70
44121;DHT22;29783;52.504;13.478;2022-07-04T10:54:43;25.10;42.60
44121;DHT22;29783;52.504;13.478;2022-07-04T10:57:22;25.10;42.90
44121;DHT22;29783;52.504;13.478;2022-07-04T11:02:29;25.60;42.00
44121;DHT22;29783;52.504;13.478;2022-07-04T11:13:04;25.40;42.30
44121;DHT22;29783;52.504;13.478;2022-07-04T11:20:25;25.00;43.30
44121;DHT22;29783;52.504;13.478;2022-07-04T11:22:50;25.20;42.90
44121;DHT22;29783;52.504;13.478;2022-07-04T11:25:16;25.50;42.50
44121;DHT22;29783;52.504;13.478;2022-07-04T11:27:42;25.30;42.90
44121;DHT22;29783;52.504;13.478;2022-07-04T11:30:10;25.40;42.60
44121;DHT22;29783;52.504;13.478;2022-07-04T11:32:37;25.60;42.10
44121;DHT22;29783;52.504;13.478;2022-07-04T11:35:04;25.40;42.20
44121;DHT22;29783;52.504;13.478;2022-07-04T11:37:30;25.20;43.30
44121;DHT22;29783;52.504;13.478;2022-07-04T11:39:56;25.10;43.70
44121;DHT22;29783;52.504;13.478;2022-07-04T11:43:05;24.90;44.00
44121;DHT22;29783;52.504;13.478;2022-07-04T11:45:50;25.10;43.60
44121;DHT22;29783;52.504;13.478;2022-07-04T11:48:26;25.10;42.80
44121;DHT22;29783;52.504;13.478;2022-07-04T11:50:52;25.20;43.30
44121;DHT22;29783;52.504;13.478;2022-07-04T11:53:18;25.30;42.70
44121;DHT22;29783;52.504;13.478;2022-07-04T11:55:54;25.60;42.80
44121;DHT22;29783;52.504;13.478;2022-07-04T11:58:21;26.20;42.00
44121;DHT22;29783;52.504;13.478;2022-07-04T12:00:47;26.40;40.50
44121;DHT22;29783;52.504;13.478;2022-07-04T12:03:13;26.40;40.70
44121;DHT22;29783;52.504;13.478;2022-07-04T12:05:38;26.20;40.60
44121;DHT22;29783;52.504;13.478;2022-07-04T12:08:04;26.60;40.50
44121;DHT22;29783;52.504;13.478;2022-07-04T12:10:31;26.50;39.50
44121;DHT22;29783;52.504;13.478;2022-07-04T12:13:05;26.70;38.50
44121;DHT22;29783;52.504;13.478;2022-07-04T12:15:41;27.50;37.30
44121;DHT22;29783;52.504;13.478;2022-07-04T12:18:19;28.50;35.50
44121;DHT22;29783;52.504;13.478;2022-07-04T12:20:46;29.20;34.60
44121;DHT22;29783;52.504;13.478;2022-07-04T12:23:12;29.10;34.50
44121;DHT22;29783;52.504;13.478;2022-07-04T12:25:38;28.50;35.70
44121;DHT22;29783;52.504;13.478;2022-07-04T12:28:09;28.10;35.80
44121;DHT22;29783;52.504;13.478;2022-07-04T12:30:37;28.60;34.60
44121;DHT22;29783;52.504;13.478;2022-07-04T12:33:08;27.40;36.80
44121;DHT22;29783;52.504;13.478;2022-07-04T12:38:49;29.90;34.10
44121;DHT22;29783;52.504;13.478;2022-07-04T12:43:25;31.20;31.40
44121;DHT22;29783;52.504;13.478;2022-07-04T12:45:52;31.40;31.30
44121;DHT22;29783;52.504;13.478;2022-07-04T12:48:26;33.30;29.10
44121;DHT22;29783;52.504;13.478;2022-07-04T12:50:53;31.60;30.80
44121;DHT22;29783;52.504;13.478;2022-07-04T12:53:19;31.50;30.20
44121;DHT22;29783;52.504;13.478;2022-07-04T12:55:46;31.60;30.20
44121;DHT22;29783;52.504;13.478;2022-07-04T12:58:13;32.50;29.20
44121;DHT22;29783;52.504;13.478;2022-07-04T13:00:39;33.30;28.00
44121;DHT22;29783;52.504;13.478;2022-07-04T13:03:06;34.60;26.10
44121;DHT22;29783;52.504;13.478;2022-07-04T13:05:34;34.40;26.30
44121;DHT22;29783;52.504;13.478;2022-07-04T13:08:01;33.30;27.20
44121;DHT22;29783;52.504;13.478;2022-07-04T13:10:26;32.60;28.40
44121;DHT22;29783;52.504;13.478;2022-07-04T13:12:52;32.00;29.40
44121;DHT22;29783;52.504;13.478;2022-07-04T13:15:18;32.70;28.10
44121;DHT22;29783;52.504;13.478;2022-07-04T13:17:43;32.60;27.50
44121;DHT22;29783;52.504;13.478;2022-07-04T13:20:09;32.40;28.10
44121;DHT22;29783;52.504;13.478;2022-07-04T13:22:35;31.10;28.90
44121;DHT22;29783;52.504;13.478;2022-07-04T13:25:01;29.80;30.40
44121;DHT22;29783;52.504;13.478;2022-07-04T13:27:29;29.10;31.50
44121;DHT22;29783;52.504;13.478;2022-07-04T13:29:54;29.10;31.70
44121;DHT22;29783;52.504;13.478;2022-07-04T13:32:20;28.20;32.90
44121;DHT22;29783;52.504;13.478;2022-07-04T13:34:45;27.40;34.40
44121;DHT22;29783;52.504;13.478;2022-07-04T13:37:11;27.50;34.20
44121;DHT22;29783;52.504;13.478;2022-07-04T13:39:37;29.40;31.90
44121;DHT22;29783;52.504;13.478;2022-07-04T13:42:02;32.50;27.70
44121;DHT22;29783;52.504;13.478;2022-07-04T13:44:29;34.30;25.00
44121;DHT22;29783;52.504;13.478;2022-07-04T13:46:54;34.40;25.00
44121;DHT22;29783;52.504;13.478;2022-07-04T13:49:21;33.80;25.90
44121;DHT22;29783;52.504;13.478;2022-07-04T13:51:47;34.10;25.50
44121;DHT22;29783;52.504;13.478;2022-07-04T13:54:12;35.10;24.80
44121;DHT22;29783;52.504;13.478;2022-07-04T13:56:39;35.60;24.00
44121;DHT22;29783;52.504;13.478;2022-07-04T13:59:04;33.40;26.30
44121;DHT22;29783;52.504;13.478;2022-07-04T14:01:30;33.00;26.50
44121;DHT22;29783;52.504;13.478;2022-07-04T14:03:55;33.80;25.60
44121;DHT22;29783;52.504;13.478;2022-07-04T14:06:21;34.10;25.50
44121;DHT22;29783;52.504;13.478;2022-07-04T14:08:47;33.70;25.50
44121;DHT22;29783;52.504;13.478;2022-07-04T14:11:13;32.30;27.00
44121;DHT22;29783;52.504;13.478;2022-07-04T14:13:39;30.30;29.20
44121;DHT22;29783;52.504;13.478;2022-07-04T14:16:06;29.80;29.80
44121;DHT22;29783;52.504;13.478;2022-07-04T14:18:32;29.60;30.40
44121;DHT22;29783;52.504;13.478;2022-07-04T14:20:58;31.70;27.50
44121;DHT22;29783;52.504;13.478;2022-07-04T14:23:24;33.40;25.40
44121;DHT22;29783;52.504;13.478;2022-07-04T14:26:09;34.60;23.80
44121;DHT22;29783;52.504;13.478;2022-07-04T14:28:36;34.50;24.80
44121;DHT22;29783;52.504;13.478;2022-07-04T14:31:02;35.10;24.00
44121;DHT22;29783;52.504;13.478;2022-07-04T14:33:28;36.00;22.80
44121;DHT22;29783;52.504;13.478;2022-07-04T14:35:53;34.70;23.50
44121;DHT22;29783;52.504;13.478;2022-07-04T14:38:19;32.20;26.20
44121;DHT22;29783;52.504;13.478;2022-07-04T14:40:45;31.30;27.30
44121;DHT22;29783;52.504;13.478;2022-07-04T14:43:14;30.10;28.80
44121;DHT22;29783;52.504;13.478;2022-07-04T14:45:39;29.50;30.00
44121;DHT22;29783;52.504;13.478;2022-07-04T14:48:05;31.00;27.90
44121;DHT22;29783;52.504;13.478;2022-07-04T14:50:31;31.80;27.40
44121;DHT22;29783;52.504;13.478;2022-07-04T14:52:57;33.60;25.70
44121;DHT22;29783;52.504;13.478;2022-07-04T14:55:22;35.90;23.20
44121;DHT22;29783;52.504;13.478;2022-07-04T14:57:48;36.80;22.10
44121;DHT22;29783;52.504;13.478;2022-07-04T15:00:14;36.80;22.00
44121;DHT22;29783;52.504;13.478;2022-07-04T15:02:39;36.70;22.00
44121;DHT22;29783;52.504;13.478;2022-07-04T15:05:05;36.80;21.90
44121;DHT22;29783;52.504;13.478;2022-07-04T15:07:33;36.50;22.10
44121;DHT22;29783;52.504;13.478;2022-07-04T15:09:59;37.30;21.20
44121;DHT22;29783;52.504;13.478;2022-07-04T15:12:25;38.00;20.90
44121;DHT22;29783;52.504;13.478;2022-07-04T15:14:50;37.40;21.30
44121;DHT22;29783;52.504;13.478;2022-07-04T15:17:16;38.40;20.60
44121;DHT22;29783;52.504;13.478;2022-07-04T15:19:41;39.20;19.60
44121;DHT22;29783;52.504;13.478;2022-07-04T15:22:26;38.10;20.70
44121;DHT22;29783;52.504;13.478;2022-07-04T15:25:10;39.70;19.40
44121;DHT22;29783;52.504;13.478;2022-07-04T15:27:36;39.20;19.50
44121;DHT22;29783;52.504;13.478;2022-07-04T15:30:02;39.00;20.00
44121;DHT22;29783;52.504;13.478;2022-07-04T15:32:27;38.60;19.70
44121;DHT22;29783;52.504;13.478;2022-07-04T15:34:53;36.80;21.10
44121;DHT22;29783;52.504;13.478;2022-07-04T15:37:18;37.80;20.70
44121;DHT22;29783;52.504;13.478;2022-07-04T15:39:44;36.00;22.30
44121;DHT22;29783;52.504;13.478;2022-07-04T15:42:09;36.40;22.10